Terminal Aerodrome Forecast
Issued by NWS

Home | Current Version | Previous Version | Text Only | Print | Product List | Glossary On
Versions: 1 2 3 4 5 6 7 8 9 10 11 12 13 14
571
FTUS43 KTOP 240316 AAA
TAFFOE
TAF AMD
KFOE 240316Z 2403/2424 02011KT P6SM SCT015
      TEMPO 2403/2406 BKN015
     FM240600 30015G24KT P6SM SCT011
     FM241000 29015G25KT P6SM SCT007 BKN011
     FM241800 30019G27KT P6SM BKN025=

USA.gov is the U.S. government's official web portal to all federal, state and local government web resources and services.